TimeEST,TemperatureF,Dew PointF,Humidity,Sea Level PressureIn,VisibilityMPH,Wind Direction,Wind SpeedMPH,Gust SpeedMPH,PrecipitationIn,Events,Conditions,WindDirDegrees,DateUTC
12:53 AM,45.0,24.1,44,29.99,10.0,East,6.9,-,N/A,,Clear,80,2013-02-25 05:53:00
1:53 AM,45.0,24.1,44,30.00,10.0,ENE,9.2,-,N/A,,Clear,70,2013-02-25 06:53:00
2:53 AM,45.0,24.1,44,29.99,10.0,NE,12.7,-,N/A,,Clear,50,2013-02-25 07:53:00
3:53 AM,44.1,24.1,45,30.00,10.0,NE,11.5,-,N/A,,Clear,50,2013-02-25 08:53:00
4:53 AM,44.1,25.0,47,30.02,10.0,NE,10.4,-,N/A,,Clear,50,2013-02-25 09:53:00
5:53 AM,42.1,25.0,51,30.04,10.0,NE,11.5,-,N/A,,Clear,50,2013-02-25 10:53:00
6:53 AM,42.1,24.1,49,30.06,10.0,NE,11.5,-,N/A,,Clear,40,2013-02-25 11:53:00
7:53 AM,42.1,23.0,47,30.10,10.0,NE,11.5,-,N/A,,Clear,50,2013-02-25 12:53:00
8:53 AM,42.1,24.1,49,30.14,10.0,ENE,10.4,-,N/A,,Clear,60,2013-02-25 13:53:00
9:53 AM,43.0,24.1,47,30.14,10.0,NE,16.1,20.7,N/A,,Clear,40,2013-02-25 14:53:00
10:53 AM,43.0,24.1,47,30.14,10.0,NE,15.0,20.7,N/A,,Clear,50,2013-02-25 15:53:00
11:53 AM,44.1,25.0,47,30.12,10.0,NE,13.8,20.7,N/A,,Clear,50,2013-02-25 16:53:00
1:53 PM,46.0,26.1,46,30.08,10.0,NE,13.8,-,N/A,,Mostly Cloudy,40,2013-02-25 18:53:00
2:53 PM,46.0,26.1,46,30.06,10.0,NE,12.7,19.6,N/A,,Overcast,50,2013-02-25 19:53:00
3:53 PM,46.9,26.1,44,30.06,10.0,ENE,10.4,19.6,N/A,,Overcast,60,2013-02-25 20:53:00
4:53 PM,46.0,26.1,46,30.05,10.0,ENE,13.8,20.7,N/A,,Mostly Cloudy,60,2013-02-25 21:53:00
5:50 PM,44.6,26.6,49,30.04,10.0,NE,13.8,-,N/A,,Overcast,50,2013-02-25 22:50:00
5:53 PM,45.0,26.1,48,30.05,10.0,ENE,13.8,-,N/A,,Overcast,70,2013-02-25 22:53:00
6:53 PM,44.1,26.1,49,30.05,10.0,ENE,10.4,-,N/A,,Overcast,60,2013-02-25 23:53:00
7:08 PM,44.6,26.6,49,30.04,10.0,ENE,11.5,-,N/A,,Overcast,70,2013-02-26 00:08:00
7:35 PM,42.8,26.6,53,30.04,10.0,ENE,12.7,-,N/A,,Overcast,70,2013-02-26 00:35:00
7:53 PM,43.0,26.1,51,30.05,10.0,ENE,15.0,21.9,N/A,,Overcast,70,2013-02-26 00:53:00
8:53 PM,42.1,26.1,53,30.05,10.0,NE,16.1,20.7,N/A,,Overcast,50,2013-02-26 01:53:00
9:53 PM,41.0,26.1,55,30.05,10.0,ENE,13.8,21.9,N/A,,Overcast,60,2013-02-26 02:53:00
10:53 PM,37.9,30.0,73,30.06,6.0,ENE,16.1,23.0,0.00,Rain,Light Rain,60,2013-02-26 03:53:00
11:53 PM,36.0,30.9,82,30.05,6.0,NE,15.0,24.2,0.00,Rain,Light Rain,50,2013-02-26 04:53:00